Time;durP1;ratioP1;P1;durP2;ratioP2;P2;SDS_P1;SDS_P2;PMS_P1;PMS_P2;Temp;Humidity;BMP_temperature;BMP_pressure;BME280_temperature;BME280_humidity;BME280_pressure;Samples;Min_cycle;Max_cycle;Signal;HPM_P1;HPM_P2
2022/08/03 00:00:45;;;;;;;4.57;3.35;;;;;;;16.15;93.55;98446.84;5069602;28;20036;-67
2022/08/03 00:03:11;;;;;;;7.03;3.63;;;;;;;16.13;93.56;98454.00;5051693;28;20200;-67
2022/08/03 00:05:36;;;;;;;6.32;3.40;;;;;;;16.09;93.66;98449.75;5055172;28;20201;-67
2022/08/03 00:08:02;;;;;;;3.95;3.03;;;;;;;16.00;93.72;98452.81;5071879;28;20021;-67
2022/08/03 00:10:27;;;;;;;8.55;4.05;;;;;;;15.90;94.31;98447.97;5071666;28;20031;-67
2022/08/03 00:12:53;;;;;;;6.43;3.35;;;;;;;15.82;94.95;98445.66;5072077;28;20016;-66
2022/08/03 00:15:19;;;;;;;5.03;3.17;;;;;;;15.85;94.77;98434.91;5072008;28;20028;-66
2022/08/03 00:17:44;;;;;;;4.75;3.00;;;;;;;15.67;94.82;98443.66;5071947;28;20066;-66
2022/08/03 00:20:10;;;;;;;6.90;3.80;;;;;;;15.68;95.69;98442.72;5071708;28;20025;-66
2022/08/03 00:22:35;;;;;;;5.35;4.00;;;;;;;15.77;96.03;98445.00;5071529;28;20017;-66
2022/08/03 00:25:01;;;;;;;6.93;3.67;;;;;;;15.84;95.82;98441.16;5071577;28;20343;-66
2022/08/03 00:27:26;;;;;;;5.38;3.85;;;;;;;15.84;95.13;98441.16;5071208;28;20047;-66
2022/08/03 00:29:51;;;;;;;4.57;3.15;;;;;;;15.78;94.89;98436.09;5071285;28;20021;-67
2022/08/03 00:32:17;;;;;;;7.15;3.83;;;;;;;15.79;95.31;98443.13;5071293;28;20028;-67
2022/08/03 00:34:42;;;;;;;6.07;3.15;;;;;;;15.77;95.50;98439.69;5071614;28;20024;-67
2022/08/03 00:37:08;;;;;;;7.05;3.30;;;;;;;15.74;95.50;98442.47;5071422;28;20020;-67
2022/08/03 00:39:33;;;;;;;5.63;3.13;;;;;;;15.75;95.32;98441.53;5070577;28;20066;-67
2022/08/03 00:42:03;;;;;;;4.03;3.03;;;;;;;15.74;95.05;98438.94;5071512;28;20016;-67
2022/08/03 00:44:28;;;;;;;5.47;3.35;;;;;;;15.67;95.13;98432.19;5070676;28;20104;-67
2022/08/03 00:46:53;;;;;;;6.20;3.50;;;;;;;15.44;95.19;98430.50;5071079;28;20025;-67
2022/08/03 00:49:19;;;;;;;7.78;3.60;;;;;;;15.32;95.79;98438.94;5071037;28;20217;-67
2022/08/03 00:51:45;;;;;;;5.18;3.15;;;;;;;15.22;96.69;98436.72;5070842;28;20043;-67
2022/08/03 00:54:11;;;;;;;8.20;3.88;;;;;;;15.34;97.48;98439.72;5071036;28;20025;-67
2022/08/03 00:56:36;;;;;;;7.82;3.22;;;;;;;15.39;97.09;98437.78;5056707;28;20033;-67
2022/08/03 00:59:02;;;;;;;4.43;3.30;;;;;;;15.37;97.13;98426.38;5051427;28;20036;-67
2022/08/03 01:01:28;;;;;;;4.25;3.10;;;;;;;15.20;96.53;98428.84;5051148;28;20026;-67
2022/08/03 01:03:53;;;;;;;3.92;3.15;;;;;;;15.28;97.26;98434.66;5051007;28;20037;-67
2022/08/03 01:06:35;;;;;;;5.47;3.55;;;;;;;15.27;97.38;98427.66;5058583;28;20025;-67
2022/08/03 01:09:23;;;;;;;5.20;3.55;;;;;;;15.34;97.57;98429.13;5070199;28;20024;-67
2022/08/03 01:11:55;;;;;;;5.25;3.47;;;;;;;15.30;97.72;98432.84;5067634;28;20086;-67
2022/08/03 01:14:26;;;;;;;;;;;;;;;15.28;97.40;98429.38;5065308;28;20052;-67
2022/08/03 01:16:51;;;;;;;5.30;3.78;;;;;;;15.22;97.39;98424.31;5050440;28;19912;-67
2022/08/03 01:19:41;;;;;;;4.80;3.28;;;;;;;15.04;96.87;98411.84;5050807;28;20025;-67
2022/08/03 01:22:25;;;;;;;4.95;3.33;;;;;;;15.12;97.29;98417.66;5051042;28;20072;-67
2022/08/03 01:25:05;;;;;;;6.47;3.08;;;;;;;15.18;97.29;98422.72;5050467;28;20272;-67
2022/08/03 01:27:56;;;;;;;6.82;3.38;;;;;;;15.03;96.64;98415.41;5049990;28;20024;-67
2022/08/03 01:30:27;;;;;;;5.97;3.65;;;;;;;15.01;97.15;98419.91;5050720;28;20021;-67
2022/08/03 01:33:11;;;;;;;5.75;3.67;;;;;;;15.02;96.33;98416.31;5050665;28;20022;-67
2022/08/03 01:35:39;;;;;;;4.43;3.00;;;;;;;14.85;96.59;98408.19;5050337;28;20092;-67
2022/08/03 01:38:10;;;;;;;5.18;3.33;;;;;;;14.77;97.65;98404.97;5055654;28;20027;-67
2022/08/03 01:40:40;;;;;;;8.63;3.28;;;;;;;14.89;98.07;98410.66;5070254;28;20028;-67
2022/08/03 01:43:07;;;;;;;5.03;3.95;;;;;;;14.82;98.14;98400.38;5070576;28;20024;-67
2022/08/03 01:45:34;;;;;;;6.80;3.53;;;;;;;14.72;98.15;98406.97;5069615;28;20017;-67
2022/08/03 01:48:01;;;;;;;4.50;3.35;;;;;;;14.80;98.76;98410.16;5070063;28;20083;-67
2022/08/03 01:50:29;;;;;;;5.45;3.13;;;;;;;14.89;98.79;98412.44;5070277;28;20042;-67
2022/08/03 01:52:56;;;;;;;4.40;3.35;;;;;;;14.94;98.16;98405.19;5070005;28;20029;-67
2022/08/03 01:55:24;;;;;;;4.97;3.55;;;;;;;14.90;97.75;98406.19;5069947;28;20031;-67
2022/08/03 01:57:51;;;;;;;7.10;3.60;;;;;;;14.85;97.84;98403.78;5070190;28;20048;-67
2022/08/03 02:00:18;;;;;;;4.68;3.45;;;;;;;14.91;97.59;98405.31;5070127;28;20035;-67
2022/08/03 02:02:45;;;;;;;4.60;3.38;;;;;;;14.75;96.90;98399.72;5070176;28;20284;-67
2022/08/03 02:05:13;;;;;;;11.00;4.05;;;;;;;14.57;97.46;98404.91;5069348;28;20025;-67
2022/08/03 02:07:40;;;;;;;5.00;3.35;;;;;;;14.61;98.73;98404.72;5070233;28;20100;-67
2022/08/03 02:10:07;;;;;;;4.13;3.40;;;;;;;14.58;98.27;98396.88;5069608;28;20052;-67
2022/08/03 02:12:34;;;;;;;7.90;3.63;;;;;;;14.44;99.01;98396.56;5061201;28;20025;-67
2022/08/03 02:15:01;;;;;;;7.07;3.10;;;;;;;14.53;98.10;98395.34;5050158;28;20025;-67
2022/08/03 02:17:27;;;;;;;6.32;3.30;;;;;;;14.54;98.05;98397.06;5049281;28;20032;-67
2022/08/03 02:19:55;;;;;;;6.43;3.78;;;;;;;14.42;98.29;98393.09;5049155;28;20316;-67
2022/08/03 02:22:23;;;;;;;10.15;3.72;;;;;;;14.27;98.74;98392.84;5050046;28;20074;-67
2022/08/03 02:24:48;;;;;;;6.20;4.05;;;;;;;14.31;99.90;98399.75;5051689;28;20131;-67
2022/08/03 02:27:21;;;;;;;6.35;4.00;;;;;;;14.41;100.00;98395.81;5069612;28;20020;-67
2022/08/03 02:29:51;;;;;;;4.68;3.45;;;;;;;14.47;100.00;98403.53;5069956;28;20269;-67
2022/08/03 02:32:22;;;;;;;5.32;3.60;;;;;;;14.55;99.29;98398.78;5069631;28;20025;-67
2022/08/03 02:34:52;;;;;;;9.48;3.40;;;;;;;14.35;98.17;98396.91;5069681;28;20027;-67
2022/08/03 02:37:18;;;;;;;5.43;3.83;;;;;;;14.21;98.69;98393.88;5069687;28;20027;-67
2022/08/03 02:39:45;;;;;;;4.47;3.50;;;;;;;14.21;99.74;98398.34;5069627;28;20024;-67
2022/08/03 02:42:15;;;;;;;6.97;3.55;;;;;;;14.33;99.71;98397.91;5069421;28;20082;-67
2022/08/03 02:44:46;;;;;;;5.80;3.50;;;;;;;14.14;99.59;98396.84;5069407;28;20092;-67
2022/08/03 02:47:12;;;;;;;7.60;3.83;;;;;;;14.22;99.41;98400.03;5069468;28;20028;-67
2022/08/03 02:49:39;;;;;;;6.50;3.47;;;;;;;14.23;99.44;98392.09;5054899;28;20029;-67
2022/08/03 02:52:10;;;;;;;8.98;3.78;;;;;;;14.24;99.75;98392.97;5068623;28;20229;-67
2022/08/03 02:54:38;;;;;;;6.13;3.80;;;;;;;14.27;99.88;98395.50;5069036;28;20021;-67
2022/08/03 02:57:06;;;;;;;10.27;4.00;;;;;;;14.29;100.00;98390.97;5069184;28;20032;-67
2022/08/03 02:59:33;;;;;;;5.50;3.17;;;;;;;14.30;99.89;98384.78;5059188;28;20031;-67
2022/08/03 03:02:00;;;;;;;5.53;3.45;;;;;;;14.32;99.73;98393.50;5049468;28;20321;-67
2022/08/03 03:04:28;;;;;;;4.95;3.85;;;;;;;14.35;99.38;98394.28;5049410;28;20317;-67
2022/08/03 03:06:55;;;;;;;4.32;3.47;;;;;;;14.16;98.52;98394.97;5049485;28;20028;-67
2022/08/03 03:09:21;;;;;;;4.97;3.78;;;;;;;14.16;99.30;98395.84;5048870;28;20032;-67
2022/08/03 03:11:48;;;;;;;4.55;3.47;;;;;;;14.27;99.59;98398.13;5048934;28;20084;-67
2022/08/03 03:14:14;;;;;;;6.20;3.40;;;;;;;14.27;99.20;98398.13;5049539;28;20049;-67
2022/08/03 03:16:43;;;;;;;8.13;4.00;;;;;;;14.21;99.38;98393.88;5048845;28;20033;-67
2022/08/03 03:19:11;;;;;;;5.28;3.65;;;;;;;14.15;99.27;98395.91;5056304;28;20047;-67
2022/08/03 03:21:37;;;;;;;5.03;3.13;;;;;;;14.06;98.64;98397.13;5069015;28;20031;-67
2022/08/03 03:24:05;;;;;;;4.47;3.30;;;;;;;13.95;98.97;98391.34;5068469;28;20219;-67
2022/08/03 03:26:30;;;;;;;6.50;3.63;;;;;;;14.03;99.31;98393.72;5068577;28;20316;-67
2022/08/03 03:28:56;;;;;;;5.32;3.55;;;;;;;14.05;99.40;98397.19;5068892;28;20047;-67
2022/08/03 03:31:22;;;;;;;4.63;3.70;;;;;;;13.98;99.51;98393.88;5068511;28;20017;-67
2022/08/03 03:33:48;;;;;;;8.02;3.78;;;;;;;13.98;100.00;98385.09;5069081;28;20051;-67
2022/08/03 03:36:13;;;;;;;4.97;3.92;;;;;;;13.91;100.00;98391.50;5068460;28;20044;-67
2022/08/03 03:38:39;;;;;;;6.00;3.50;;;;;;;13.77;100.00;98393.78;5069070;28;20025;-67
2022/08/03 03:41:04;;;;;;;10.10;3.55;;;;;;;13.68;100.00;98391.47;5069058;28;20021;-67
2022/08/03 03:43:30;;;;;;;7.53;3.85;;;;;;;13.71;100.00;98399.31;5068592;28;20209;-67
2022/08/03 03:45:57;;;;;;;4.80;3.60;;;;;;;13.74;100.00;98391.25;5067799;28;20028;-67
2022/08/03 03:48:23;;;;;;;6.90;3.78;;;;;;;13.77;100.00;98396.44;5068472;28;20341;-67
2022/08/03 03:50:49;;;;;;;4.35;3.45;;;;;;;13.80;100.00;98396.34;5068478;28;20025;-67
2022/08/03 03:53:15;;;;;;;5.15;3.78;;;;;;;13.85;100.00;98399.66;5068741;28;20067;-67
2022/08/03 03:55:40;;;;;;;6.22;4.18;;;;;;;13.88;100.00;98400.44;5068912;28;20024;-67
2022/08/03 03:58:06;;;;;;;4.90;3.63;;;;;;;13.90;100.00;98392.44;5068826;28;20036;-67
2022/08/03 04:00:32;;;;;;;4.60;3.35;;;;;;;13.91;100.00;98400.31;5068294;28;20033;-67
2022/08/03 04:02:57;;;;;;;5.47;3.90;;;;;;;13.87;100.00;98392.53;5067856;28;20055;-67
2022/08/03 04:11:15;;;;;;;5.20;3.47;;;;;;;13.72;99.38;98406.31;5068333;28;20032;-67
2022/08/03 04:13:47;;;;;;;7.00;3.88;;;;;;;13.71;100.00;98397.53;5068450;28;20029;-67
2022/08/03 04:16:16;;;;;;;5.97;4.05;;;;;;;13.78;100.00;98403.44;5068929;28;20028;-67
2022/08/03 04:18:47;;;;;;;7.10;4.00;;;;;;;13.87;100.00;98404.00;5067981;28;20027;-67
2022/08/03 04:21:15;;;;;;;7.60;4.60;;;;;;;13.96;100.00;98398.38;5069114;28;20039;-67
2022/08/03 04:23:44;;;;;;;5.03;3.60;;;;;;;13.99;99.38;98402.69;5068662;28;20089;-67
2022/08/03 04:26:13;;;;;;;5.88;3.55;;;;;;;13.91;98.19;98404.72;5069072;28;20021;-67
2022/08/03 04:28:43;;;;;;;5.35;3.28;;;;;;;13.87;98.40;98397.84;5068613;28;20033;-67
2022/08/03 04:31:09;;;;;;;6.93;3.97;;;;;;;13.88;98.24;98396.91;5068480;28;20080;-67
2022/08/03 04:33:37;;;;;;;5.60;3.95;;;;;;;13.85;99.10;98404.94;5068262;28;20017;-67
2022/08/03 04:36:05;;;;;;;5.38;3.55;;;;;;;13.91;99.51;98404.72;5068706;28;20017;-67
2022/08/03 04:38:35;;;;;;;5.57;4.05;;;;;;;13.96;99.35;98410.72;5068474;28;20044;-67
2022/08/03 04:41:01;;;;;;;5.97;3.80;;;;;;;13.85;99.19;98399.66;5064475;28;20092;-71
2022/08/03 04:43:28;;;;;;;5.03;3.75;;;;;;;13.92;99.73;98409.97;5064302;28;20017;-71
2022/08/03 04:45:55;;;;;;;4.90;3.72;;;;;;;14.03;100.00;98409.59;5066587;28;20325;-71
2022/08/03 04:48:21;;;;;;;5.50;3.40;;;;;;;14.15;99.85;98415.31;5066820;28;20020;-71
2022/08/03 04:50:46;;;;;;;6.10;3.47;;;;;;;14.24;99.52;98419.44;5066791;28;20249;-71
2022/08/03 04:53:12;;;;;;;5.20;3.80;;;;;;;14.29;99.48;98417.47;5057422;28;20056;-71
2022/08/03 04:55:37;;;;;;;5.07;3.80;;;;;;;14.44;98.53;98422.19;5046709;28;20029;-72
2022/08/03 04:58:05;;;;;;;4.80;4.15;;;;;;;14.72;97.36;98423.69;5056993;28;20043;-72
2022/08/03 05:00:30;;;;;;;7.10;3.40;;;;;;;14.74;95.18;98426.28;5066642;28;20024;-72
2022/08/03 05:02:56;;;;;;;6.13;3.80;;;;;;;15.62;92.48;98434.16;5066008;28;20044;-72
2022/08/03 05:05:22;;;;;;;4.38;3.53;;;;;;;16.78;86.47;98438.63;5045457;28;20025;-72
2022/08/03 05:07:47;;;;;;;4.78;3.05;;;;;;;17.41;82.66;98431.97;5046607;28;20023;-72
2022/08/03 05:10:13;;;;;;;3.83;2.95;;;;;;;18.48;78.79;98435.22;5046568;28;20028;-72
2022/08/03 05:12:39;;;;;;;4.88;2.65;;;;;;;19.34;74.96;98430.41;5046343;28;20209;-72
2022/08/03 05:15:05;;;;;;;4.10;2.80;;;;;;;20.17;72.20;98431.66;5046402;28;20032;-72
2022/08/03 05:17:32;;;;;;;3.03;2.40;;;;;;;20.58;69.99;98439.78;5058787;28;20272;-72
2022/08/03 05:19:58;;;;;;;5.50;2.72;;;;;;;21.20;68.44;98437.53;5046354;28;20025;-72
2022/08/03 05:22:24;;;;;;;4.07;2.60;;;;;;;21.78;66.49;98436.38;5054155;28;20075;-72
2022/08/03 05:24:49;;;;;;;4.00;2.17;;;;;;;21.51;66.38;98427.50;5062007;28;20033;-72
2022/08/03 05:27:20;;;;;;;5.85;2.92;;;;;;;21.85;66.06;98435.00;5065868;28;20047;-72
2022/08/03 05:29:47;;;;;;;6.22;2.42;;;;;;;22.14;65.08;98433.88;5066088;28;20029;-72
2022/08/03 05:32:13;;;;;;;9.80;2.45;;;;;;;23.00;63.60;98447.41;5058955;28;20031;-72
2022/08/03 05:34:38;;;;;;;7.28;2.45;;;;;;;23.23;61.82;98443.94;5046011;28;20025;-72
2022/08/03 05:37:03;;;;;;;3.97;2.45;;;;;;;23.19;60.41;98442.38;5044814;28;20028;-72
2022/08/03 05:39:29;;;;;;;3.63;2.08;;;;;;;24.00;59.91;98456.91;5045909;28;20062;-72
2022/08/03 05:41:54;;;;;;;3.53;2.50;;;;;;;24.29;58.57;98448.34;5045891;28;20096;-72
2022/08/03 05:44:20;;;;;;;3.08;2.00;;;;;;;24.48;59.07;98453.13;5055894;28;20017;-72
2022/08/03 05:46:45;;;;;;;3.90;2.25;;;;;;;24.80;56.83;98444.28;5065789;28;20029;-72
2022/08/03 05:49:10;;;;;;;6.32;2.40;;;;;;;24.85;57.51;98452.84;5051302;28;20052;-72
2022/08/03 05:51:36;;;;;;;5.65;2.42;;;;;;;25.49;56.05;98453.03;5045704;28;20080;-72
2022/08/03 05:54:02;;;;;;;5.78;2.50;;;;;;;25.83;54.70;98447.44;5045384;28;20021;-72
2022/08/03 05:56:27;;;;;;;4.47;2.40;;;;;;;25.58;55.76;98457.66;5044402;28;20021;-72
2022/08/03 05:58:53;;;;;;;3.50;2.42;;;;;;;25.82;54.10;98451.13;5060105;28;20071;-71
2022/08/03 06:01:23;;;;;;;2.80;2.22;;;;;;;26.16;53.92;98441.06;5065476;28;20040;-71
2022/08/03 06:03:49;;;;;;;5.90;2.80;;;;;;;25.51;55.81;98448.38;5060849;28;20032;-71
2022/08/03 06:06:15;;;;;;;4.72;2.40;;;;;;;25.85;55.59;98439.22;5065625;28;20028;-71
2022/08/03 06:08:42;;;;;;;5.95;2.80;;;;;;;26.36;54.13;98446.47;5065558;28;20024;-71
2022/08/03 06:11:07;;;;;;;5.13;2.55;;;;;;;27.16;52.57;98450.16;5065287;28;20348;-71
2022/08/03 06:13:33;;;;;;;7.57;3.10;;;;;;;26.96;53.85;98451.09;5059667;28;20017;-71
2022/08/03 06:15:58;;;;;;;4.57;2.47;;;;;;;27.47;52.18;98443.75;5045218;28;20101;-71
2022/08/03 06:18:24;;;;;;;5.75;2.70;;;;;;;28.11;50.89;98444.97;5045161;28;20053;-72
2022/08/03 06:20:50;;;;;;;10.30;3.20;;;;;;;28.24;50.46;98448.25;5045117;28;20036;-71
2022/08/03 06:23:16;;;;;;;5.85;2.85;;;;;;;28.20;50.88;98446.81;5045159;28;20252;-71
2022/08/03 06:25:42;;;;;;;4.65;2.67;;;;;;;28.84;50.05;98452.41;5044985;28;20029;-71
2022/08/03 06:28:07;;;;;;;3.58;2.75;;;;;;;29.72;47.59;98455.47;5050333;28;20088;-71
2022/08/03 06:30:33;;;;;;;5.20;2.42;;;;;;;29.45;48.59;98455.47;5044947;28;20091;-71
2022/08/03 06:32:58;;;;;;;4.72;3.28;;;;;;;30.18;46.21;98444.44;5044770;28;20032;-71
2022/08/03 06:35:23;;;;;;;4.47;2.72;;;;;;;30.27;46.75;98451.63;5044888;28;20045;-71
2022/08/03 06:37:50;;;;;;;6.20;2.63;;;;;;;30.83;44.74;98449.38;5044780;28;20325;-71
2022/08/03 06:40:28;;;;;;;4.22;2.60;;;;;;;30.59;46.37;98444.59;5045037;28;20471;-71
2022/08/03 06:42:54;;;;;;;6.78;2.63;;;;;;;31.07;44.96;98452.25;5046111;28;20021;-71
2022/08/03 06:45:20;;;;;;;4.78;3.10;;;;;;;30.81;45.49;98441.38;5044739;28;20217;-71
2022/08/03 06:47:45;;;;;;;6.20;2.92;;;;;;;31.10;44.70;98446.47;5054560;28;20033;-71
2022/08/03 06:50:11;;;;;;;3.72;3.10;;;;;;;31.25;44.96;98454.88;5064532;28;20028;-71
2022/08/03 06:52:36;;;;;;;4.60;2.80;;;;;;;31.24;45.08;98443.13;5064416;28;20060;-71
2022/08/03 06:55:01;;;;;;;4.53;2.78;;;;;;;32.24;43.79;98450.25;5064451;28;20044;-71
2022/08/03 06:57:27;;;;;;;7.78;2.80;;;;;;;32.94;41.97;98455.03;5064433;28;20316;-71
2022/08/03 06:59:52;;;;;;;6.88;2.80;;;;;;;32.68;43.93;98457.09;5062730;28;20383;-71
2022/08/03 07:02:18;;;;;;;3.90;2.70;;;;;;;33.08;43.47;98466.28;5064248;28;20017;-71
2022/08/03 07:04:43;;;;;;;5.25;2.90;;;;;;;33.75;43.09;98471.97;5064372;28;20028;-71
2022/08/03 07:07:09;;;;;;;4.43;3.00;;;;;;;33.60;42.08;98467.47;5063683;28;20091;-71
2022/08/03 07:09:34;;;;;;;4.40;3.05;;;;;;;34.18;41.09;98467.81;5064285;28;20028;-71
2022/08/03 07:12:01;;;;;;;4.22;2.85;;;;;;;34.21;41.04;98472.91;5061159;28;20029;-71
2022/08/03 07:14:26;;;;;;;3.55;2.55;;;;;;;34.65;38.89;98472.09;5059007;28;20020;-70
2022/08/03 07:16:52;;;;;;;4.55;2.60;;;;;;;34.62;38.88;98466.13;5053881;28;20028;-70
2022/08/03 07:19:17;;;;;;;6.60;2.85;;;;;;;34.33;40.61;98463.28;5044185;28;20079;-70
2022/08/03 07:21:44;;;;;;;3.72;2.70;;;;;;;33.80;40.67;98464.13;5048916;28;20033;-70
2022/08/03 07:24:09;;;;;;;5.65;2.45;;;;;;;33.84;39.60;98461.84;5047439;28;20024;-70
2022/08/03 07:26:35;;;;;;;5.25;2.60;;;;;;;34.59;39.34;98469.22;5044275;28;20029;-70
2022/08/03 07:29:00;;;;;;;5.68;2.38;;;;;;;34.95;39.01;98465.66;5043799;28;20045;-70
2022/08/03 07:31:26;;;;;;;8.13;2.83;;;;;;;34.91;38.44;98460.75;5060816;28;20245;-70
2022/08/03 07:33:51;;;;;;;3.28;2.50;;;;;;;36.08;37.91;98476.09;5063766;28;20048;-70
2022/08/03 07:36:17;;;;;;;3.05;2.40;;;;;;;36.00;36.83;98465.25;5063923;28;20099;-70
2022/08/03 07:38:42;;;;;;;3.03;2.30;;;;;;;36.75;35.13;98476.63;5063960;28;20047;-70
2022/08/03 07:41:08;;;;;;;5.05;2.65;;;;;;;37.31;32.32;98477.47;5053334;28;20087;-70
2022/08/03 07:43:33;;;;;;;5.63;2.35;;;;;;;36.70;34.29;98468.94;5043879;28;20017;-70
2022/08/03 07:45:58;;;;;;;6.45;2.72;;;;;;;37.35;33.40;98478.75;5043825;28;20087;-70
2022/08/03 07:48:24;;;;;;;4.63;2.53;;;;;;;37.05;33.42;98471.78;5049191;28;20033;-70
2022/08/03 07:50:49;;;;;;;3.20;2.53;;;;;;;37.61;33.35;98474.28;5055203;28;20314;-70
2022/08/03 07:53:15;;;;;;;4.50;2.35;;;;;;;38.02;33.30;98483.34;5053654;28;20092;-70
2022/08/03 07:55:40;;;;;;;5.15;2.55;;;;;;;37.97;32.01;98476.78;5043753;28;20021;-70
2022/08/03 07:58:08;;;;;;;6.63;2.65;;;;;;;38.01;32.44;98480.81;5044017;28;20028;-70
2022/08/03 08:00:34;;;;;;;4.30;2.70;;;;;;;38.37;32.03;98473.13;5043695;28;20029;-70
2022/08/03 08:03:00;;;;;;;4.10;2.50;;;;;;;38.91;30.56;98473.84;5051060;28;20048;-70
2022/08/03 08:05:25;;;;;;;3.15;2.10;;;;;;;38.77;30.56;98472.13;5063606;28;20025;-70
2022/08/03 08:07:51;;;;;;;7.50;2.50;;;;;;;38.29;30.56;98467.81;5063559;28;20088;-70
2022/08/03 08:10:16;;;;;;;4.25;2.58;;;;;;;38.39;30.70;98474.63;5063623;28;20024;-70
2022/08/03 08:12:41;;;;;;;7.63;2.60;;;;;;;37.56;31.06;98467.69;5061302;28;20303;-71
2022/08/03 08:15:07;;;;;;;4.55;2.55;;;;;;;37.45;29.86;98469.13;5043598;28;20029;-71
2022/08/03 08:17:43;;;;;;;3.17;2.20;;;;;;;38.28;30.23;98471.63;5042427;28;20300;-71
2022/08/03 08:20:11;;;;;;;3.03;2.30;;;;;;;38.98;28.16;98471.97;5047321;28;20021;-71
2022/08/03 08:22:36;;;;;;;3.97;2.30;;;;;;;39.14;29.48;98476.16;5048122;28;20097;-71
2022/08/03 08:25:02;;;;;;;9.07;2.30;;;;;;;37.48;29.55;98473.38;5067313;28;20025;-71
2022/08/03 08:27:28;;;;;;;7.18;2.15;;;;;;;37.38;29.38;98472.88;5067251;28;20216;-71
2022/08/03 08:29:53;;;;;;;5.70;2.25;;;;;;;38.28;29.03;98475.22;5067503;28;20021;-71
2022/08/03 08:32:19;;;;;;;2.95;1.98;;;;;;;38.98;28.26;98479.34;5067080;28;20032;-71
2022/08/03 08:34:44;;;;;;;3.63;2.40;;;;;;;38.94;28.50;98473.38;5051241;28;20059;-71
2022/08/03 08:37:09;;;;;;;10.63;2.63;;;;;;;38.72;28.99;98471.94;5047089;28;20025;-71
2022/08/03 08:39:35;;;;;;;3.80;2.38;;;;;;;39.35;27.68;98471.25;5052136;28;20032;-71
2022/08/03 08:42:00;;;;;;;3.50;2.47;;;;;;;39.57;27.49;98480.97;5067223;28;20088;-71
2022/08/03 08:44:26;;;;;;;3.58;2.10;;;;;;;39.39;28.70;98471.72;5066953;28;20044;-71
2022/08/03 08:46:52;;;;;;;2.33;2.10;;;;;;;39.24;27.07;98463.66;5066901;28;20028;-71
2022/08/03 08:49:23;;;;;;;3.38;1.90;;;;;;;38.96;27.52;98468.56;5064637;28;20217;-71
2022/08/03 08:51:50;;;;;;;3.80;2.30;;;;;;;38.57;27.60;98465.78;5047121;28;20336;-71
2022/08/03 08:54:20;;;;;;;10.52;2.40;;;;;;;38.17;29.00;98461.22;5046783;28;20273;-71
2022/08/03 08:56:47;;;;;;;7.45;2.50;;;;;;;38.52;27.87;98452.66;5046814;28;20025;-71
2022/08/03 08:59:13;;;;;;;2.78;1.92;;;;;;;38.76;27.17;98459.44;5047558;28;20032;-71
2022/08/03 09:01:38;;;;;;;6.65;2.58;;;;;;;37.80;28.22;98448.00;5058366;28;20025;-71
2022/08/03 09:04:08;;;;;;;7.03;2.53;;;;;;;37.65;27.97;98447.28;5066543;28;20364;-71
2022/08/03 09:06:34;;;;;;;12.32;2.53;;;;;;;38.57;28.18;98450.13;5066553;28;20040;-71
2022/08/03 09:08:59;;;;;;;5.78;3.00;;;;;;;37.77;27.53;98445.66;5066509;28;20043;-71
2022/08/03 09:11:25;;;;;;;5.82;2.92;;;;;;;37.56;27.96;98448.47;5047184;28;20029;-71
2022/08/03 09:13:50;;;;;;;8.13;2.97;;;;;;;37.68;27.01;98458.72;5046348;28;20021;-71
2022/08/03 09:16:17;;;;;;;3.55;2.72;;;;;;;38.26;27.16;98448.97;5046453;28;20025;-71
2022/08/03 09:18:45;;;;;;;4.07;2.67;;;;;;;39.01;26.36;98457.78;5046289;28;20084;-71
2022/08/03 09:21:16;;;;;;;3.78;2.50;;;;;;;39.63;26.48;98455.31;5063022;28;20028;-71
2022/08/03 09:23:47;;;;;;;3.13;2.45;;;;;;;39.81;27.23;98461.00;5066514;28;20305;-71
2022/08/03 09:26:20;;;;;;;6.40;2.90;;;;;;;38.76;26.45;98449.25;5066460;28;20021;-71
2022/08/03 09:28:46;;;;;;;5.75;2.47;;;;;;;37.87;27.48;98452.47;5065346;28;20044;-71
2022/08/03 09:31:11;;;;;;;8.57;2.50;;;;;;;37.40;27.19;98444.19;5049167;28;20029;-71
2022/08/03 09:33:47;;;;;;;4.15;2.30;;;;;;;38.67;26.79;98460.69;5045977;28;20052;-71
2022/08/03 09:36:40;;;;;;;3.97;2.50;;;;;;;39.09;25.91;98460.28;5046104;28;20029;-71
2022/08/03 09:39:12;;;;;;;4.68;2.45;;;;;;;39.10;26.22;98456.50;5046209;28;20340;-71
2022/08/03 09:41:39;;;;;;;2.45;2.00;;;;;;;39.33;26.42;98451.34;5045902;28;20317;-71
2022/08/03 09:44:05;;;;;;;4.07;2.42;;;;;;;37.97;26.60;98430.94;5045889;28;20029;-71
2022/08/03 09:46:31;;;;;;;5.97;2.80;;;;;;;37.60;27.37;98438.75;5046890;28;20217;-71
2022/08/03 09:49:12;;;;;;;4.20;2.33;;;;;;;38.29;26.78;98434.81;5046042;28;20067;-71
2022/08/03 09:51:39;;;;;;;4.10;2.40;;;;;;;37.24;27.36;98421.69;5049826;28;20328;-71
2022/08/03 09:54:05;;;;;;;3.30;2.30;;;;;;;37.24;27.58;98424.44;5045876;28;20248;-71
2022/08/03 09:56:57;;;;;;;5.75;2.33;;;;;;;37.59;27.28;98420.59;5048110;28;20037;-71
2022/08/03 09:59:27;;;;;;;5.28;2.42;;;;;;;37.83;27.55;98428.34;5064391;28;20029;-71
2022/08/03 10:01:54;;;;;;;7.70;2.17;;;;;;;38.53;26.48;98426.81;5065456;28;20028;-71
2022/08/03 10:04:21;;;;;;;6.13;2.67;;;;;;;38.96;27.35;98432.78;5065448;28;20036;-71
2022/08/03 10:07:05;;;;;;;3.80;2.20;;;;;;;39.02;26.17;98415.41;5065446;28;20020;-71
2022/08/03 10:09:31;;;;;;;3.85;2.42;;;;;;;39.07;26.57;98423.88;5065327;28;20086;-71
2022/08/03 10:12:05;;;;;;;4.05;2.47;;;;;;;39.57;25.97;98431.38;5061970;28;20017;-71
2022/08/03 10:14:31;;;;;;;5.00;2.35;;;;;;;39.50;26.64;98415.91;5051070;28;20394;-71
2022/08/03 10:16:57;;;;;;;5.20;2.53;;;;;;;39.19;25.95;98411.13;5065116;28;20236;-71
2022/08/03 10:19:24;;;;;;;7.22;2.30;;;;;;;39.49;25.64;98405.97;5065165;28;20031;-71
2022/08/03 10:21:54;;;;;;;3.20;2.30;;;;;;;39.13;26.36;98392.69;5065109;28;20025;-71
2022/08/03 10:24:25;;;;;;;4.10;2.40;;;;;;;38.91;26.17;98385.75;5065326;28;20374;-71
2022/08/03 10:26:56;;;;;;;6.13;2.88;;;;;;;38.64;27.42;98384.09;5064805;28;20220;-71
2022/08/03 10:29:26;;;;;;;4.13;2.25;;;;;;;38.92;26.24;98381.94;5064842;28;20268;-71
2022/08/03 10:31:55;;;;;;;4.60;2.60;;;;;;;38.71;26.38;98373.91;5063340;28;20032;-71
2022/08/03 10:34:25;;;;;;;6.13;2.60;;;;;;;39.11;26.51;98375.56;5064847;28;20033;-71
2022/08/03 10:36:54;;;;;;;3.75;2.47;;;;;;;39.29;26.71;98378.44;5064803;28;20025;-71
2022/08/03 10:39:21;;;;;;;6.03;2.53;;;;;;;38.97;26.66;98373.88;5064734;28;20028;-71
2022/08/03 10:41:49;;;;;;;2.60;2.20;;;;;;;38.47;26.67;98358.88;5064070;28;20048;-71
2022/08/03 10:44:21;;;;;;;5.50;2.33;;;;;;;39.05;25.93;98361.81;5048560;28;20309;-71
2022/08/03 10:46:49;;;;;;;4.43;2.78;;;;;;;39.15;25.89;98356.69;5044708;28;20225;-71
2022/08/03 10:49:16;;;;;;;4.03;2.40;;;;;;;39.41;26.45;98364.91;5044699;28;20249;-71
2022/08/03 10:51:45;;;;;;;3.42;2.30;;;;;;;38.94;26.65;98346.75;5044695;28;20021;-71
2022/08/03 10:57:52;;;;;;;5.15;2.20;;;;;;;39.11;26.91;98350.78;5044550;28;20027;-71
2022/08/03 11:00:23;;;;;;;7.15;2.38;;;;;;;38.95;27.08;98348.47;5044474;28;20053;-71
2022/08/03 11:03:09;;;;;;;5.53;2.50;;;;;;;38.93;26.60;98345.06;5044419;28;20025;-71
2022/08/03 11:05:42;;;;;;;4.00;2.38;;;;;;;38.93;26.67;98347.84;5044340;28;20033;-71
2022/08/03 11:08:19;;;;;;;3.47;2.08;;;;;;;38.93;26.44;98345.06;5044310;28;20025;-71
2022/08/03 11:10:45;;;;;;;3.10;2.42;;;;;;;37.64;26.99;98327.47;5044270;28;20029;-71
2022/08/03 11:13:14;;;;;;;2.75;2.38;;;;;;;37.09;26.87;98325.72;5044158;28;20186;-71
2022/08/03 11:15:44;;;;;;;4.22;2.35;;;;;;;37.19;27.76;98336.34;5044208;28;20057;-71
2022/08/03 11:18:11;;;;;;;4.07;2.22;;;;;;;37.83;28.55;98340.41;5047493;28;20021;-71
2022/08/03 11:20:46;;;;;;;2.95;2.20;;;;;;;38.18;26.85;98339.22;5064099;28;20025;-71
2022/08/03 11:23:13;;;;;;;3.78;2.30;;;;;;;37.94;26.83;98326.03;5064029;28;20021;-71
2022/08/03 11:26:10;;;;;;;2.47;2.00;;;;;;;37.79;27.36;98319.88;5064008;28;20055;-71
2022/08/03 11:28:39;;;;;;;5.00;2.30;;;;;;;38.09;27.71;98323.97;5063786;28;20055;-71
2022/08/03 11:31:26;;;;;;;3.08;2.42;;;;;;;38.27;27.71;98324.19;5056832;28;20035;-71
2022/08/03 11:34:05;;;;;;;3.88;2.42;;;;;;;38.27;27.49;98313.19;5055551;28;20025;-71
2022/08/03 11:37:09;;;;;;;5.25;2.30;;;;;;;38.09;27.05;98308.31;5063875;28;20017;-71
2022/08/03 11:39:39;;;;;;;4.88;2.40;;;;;;;37.57;27.42;98297.19;5063799;28;20033;-71
2022/08/03 11:42:22;;;;;;;4.35;2.25;;;;;;;37.32;28.05;98300.72;5046129;28;20096;-71
2022/08/03 11:45:08;;;;;;;4.00;2.80;;;;;;;37.27;28.76;98306.84;5058307;28;20255;-71